sensor_id;sensor_type;location;lat;lon;timestamp;P1;durP1;ratioP1;P2;durP2;ratioP2
50559;SDS011;36510;52.610;13.468;2022-11-20T00:03:08;22.10;;;14.52;;
50559;SDS011;36510;52.610;13.468;2022-11-20T00:07:59;21.08;;;14.57;;
50559;SDS011;36510;52.610;13.468;2022-11-20T00:12:49;21.90;;;14.73;;
50559;SDS011;36510;52.610;13.468;2022-11-20T00:17:40;22.15;;;14.65;;
50559;SDS011;36510;52.610;13.468;2022-11-20T00:22:30;22.73;;;13.00;;
50559;SDS011;36510;52.610;13.468;2022-11-20T00:27:21;21.95;;;13.32;;
50559;SDS011;36510;52.610;13.468;2022-11-20T00:32:11;22.65;;;14.25;;
50559;SDS011;36510;52.610;13.468;2022-11-20T00:37:01;24.02;;;15.02;;
50559;SDS011;36510;52.610;13.468;2022-11-20T00:41:52;20.15;;;13.65;;
50559;SDS011;36510;52.610;13.468;2022-11-20T00:46:42;23.60;;;14.23;;
50559;SDS011;36510;52.610;13.468;2022-11-20T00:51:33;25.67;;;14.63;;
50559;SDS011;36510;52.610;13.468;2022-11-20T00:56:23;21.13;;;13.13;;
50559;SDS011;36510;52.610;13.468;2022-11-20T01:01:21;22.45;;;13.50;;
50559;SDS011;36510;52.610;13.468;2022-11-20T01:06:18;25.98;;;14.98;;
50559;SDS011;36510;52.610;13.468;2022-11-20T01:11:11;23.05;;;15.60;;
50559;SDS011;36510;52.610;13.468;2022-11-20T01:16:07;25.92;;;15.93;;
50559;SDS011;36510;52.610;13.468;2022-11-20T01:21:00;23.83;;;13.82;;
50559;SDS011;36510;52.610;13.468;2022-11-20T01:25:52;22.52;;;14.82;;
50559;SDS011;36510;52.610;13.468;2022-11-20T01:30:43;22.63;;;13.80;;
50559;SDS011;36510;52.610;13.468;2022-11-20T01:35:33;24.83;;;14.82;;
50559;SDS011;36510;52.610;13.468;2022-11-20T01:40:24;22.75;;;13.95;;
50559;SDS011;36510;52.610;13.468;2022-11-20T01:50:54;22.88;;;13.88;;
50559;SDS011;36510;52.610;13.468;2022-11-20T01:55:47;20.58;;;12.73;;
50559;SDS011;36510;52.610;13.468;2022-11-20T02:00:40;21.73;;;13.18;;
50559;SDS011;36510;52.610;13.468;2022-11-20T02:05:38;21.67;;;13.82;;
50559;SDS011;36510;52.610;13.468;2022-11-20T02:10:39;21.73;;;13.07;;
50559;SDS011;36510;52.610;13.468;2022-11-20T02:15:29;22.67;;;13.52;;
50559;SDS011;36510;52.610;13.468;2022-11-20T02:20:22;20.75;;;13.70;;
50559;SDS011;36510;52.610;13.468;2022-11-20T02:25:12;22.52;;;13.57;;
50559;SDS011;36510;52.610;13.468;2022-11-20T02:30:04;23.52;;;14.95;;
50559;SDS011;36510;52.610;13.468;2022-11-20T02:40:09;21.17;;;14.50;;
50559;SDS011;36510;52.610;13.468;2022-11-20T02:45:00;20.20;;;13.38;;
50559;SDS011;36510;52.610;13.468;2022-11-20T02:49:51;22.15;;;14.00;;
50559;SDS011;36510;52.610;13.468;2022-11-20T02:54:41;23.75;;;13.88;;
50559;SDS011;36510;52.610;13.468;2022-11-20T02:59:31;22.90;;;14.25;;
50559;SDS011;36510;52.610;13.468;2022-11-20T03:04:22;21.35;;;13.45;;
50559;SDS011;36510;52.610;13.468;2022-11-20T03:09:12;19.10;;;12.25;;
50559;SDS011;36510;52.610;13.468;2022-11-20T03:14:03;20.52;;;13.65;;
50559;SDS011;36510;52.610;13.468;2022-11-20T03:18:54;21.13;;;13.82;;
50559;SDS011;36510;52.610;13.468;2022-11-20T03:23:45;23.83;;;15.32;;
50559;SDS011;36510;52.610;13.468;2022-11-20T03:28:35;20.77;;;14.30;;
50559;SDS011;36510;52.610;13.468;2022-11-20T03:33:27;23.15;;;14.57;;
50559;SDS011;36510;52.610;13.468;2022-11-20T03:38:18;23.60;;;14.55;;
50559;SDS011;36510;52.610;13.468;2022-11-20T03:43:09;21.65;;;14.98;;
50559;SDS011;36510;52.610;13.468;2022-11-20T03:47:59;21.88;;;15.02;;
50559;SDS011;36510;52.610;13.468;2022-11-20T03:52:50;23.40;;;14.25;;
50559;SDS011;36510;52.610;13.468;2022-11-20T03:57:40;28.95;;;16.23;;
50559;SDS011;36510;52.610;13.468;2022-11-20T04:02:31;24.48;;;14.13;;
50559;SDS011;36510;52.610;13.468;2022-11-20T04:07:21;25.52;;;15.20;;
50559;SDS011;36510;52.610;13.468;2022-11-20T04:12:11;24.77;;;15.13;;
50559;SDS011;36510;52.610;13.468;2022-11-20T04:17:03;23.95;;;14.20;;
50559;SDS011;36510;52.610;13.468;2022-11-20T04:21:53;23.17;;;15.15;;
50559;SDS011;36510;52.610;13.468;2022-11-20T04:26:44;23.98;;;15.80;;
50559;SDS011;36510;52.610;13.468;2022-11-20T04:31:34;27.08;;;15.73;;
50559;SDS011;36510;52.610;13.468;2022-11-20T04:36:25;22.33;;;14.20;;
50559;SDS011;36510;52.610;13.468;2022-11-20T04:41:17;21.10;;;14.00;;
50559;SDS011;36510;52.610;13.468;2022-11-20T04:46:10;26.85;;;16.00;;
50559;SDS011;36510;52.610;13.468;2022-11-20T04:51:04;21.38;;;14.00;;
50559;SDS011;36510;52.610;13.468;2022-11-20T04:56:01;25.30;;;15.73;;
50559;SDS011;36510;52.610;13.468;2022-11-20T05:00:52;23.93;;;15.47;;
50559;SDS011;36510;52.610;13.468;2022-11-20T05:05:43;25.38;;;15.27;;
50559;SDS011;36510;52.610;13.468;2022-11-20T05:10:33;24.65;;;15.55;;
50559;SDS011;36510;52.610;13.468;2022-11-20T05:15:24;24.38;;;15.32;;
50559;SDS011;36510;52.610;13.468;2022-11-20T05:20:14;25.75;;;16.33;;
50559;SDS011;36510;52.610;13.468;2022-11-20T05:25:05;26.58;;;16.55;;
50559;SDS011;36510;52.610;13.468;2022-11-20T05:29:56;25.13;;;16.90;;
50559;SDS011;36510;52.610;13.468;2022-11-20T05:34:46;24.58;;;16.00;;
50559;SDS011;36510;52.610;13.468;2022-11-20T05:39:37;27.52;;;16.50;;
50559;SDS011;36510;52.610;13.468;2022-11-20T05:44:27;26.13;;;16.00;;
50559;SDS011;36510;52.610;13.468;2022-11-20T05:49:18;25.77;;;15.77;;
50559;SDS011;36510;52.610;13.468;2022-11-20T05:54:08;22.20;;;15.02;;
50559;SDS011;36510;52.610;13.468;2022-11-20T05:58:58;23.02;;;15.32;;
50559;SDS011;36510;52.610;13.468;2022-11-20T06:03:49;24.50;;;15.70;;
50559;SDS011;36510;52.610;13.468;2022-11-20T06:08:40;23.55;;;16.10;;
50559;SDS011;36510;52.610;13.468;2022-11-20T06:13:31;27.00;;;15.50;;
50559;SDS011;36510;52.610;13.468;2022-11-20T06:18:21;23.27;;;14.57;;
50559;SDS011;36510;52.610;13.468;2022-11-20T06:23:12;25.77;;;16.13;;
50559;SDS011;36510;52.610;13.468;2022-11-20T06:28:03;25.75;;;15.63;;
50559;SDS011;36510;52.610;13.468;2022-11-20T06:32:53;25.10;;;16.50;;
50559;SDS011;36510;52.610;13.468;2022-11-20T06:37:44;25.30;;;15.75;;
50559;SDS011;36510;52.610;13.468;2022-11-20T06:42:34;25.27;;;15.70;;
50559;SDS011;36510;52.610;13.468;2022-11-20T06:47:25;24.15;;;15.55;;
50559;SDS011;36510;52.610;13.468;2022-11-20T06:52:15;23.25;;;15.20;;
50559;SDS011;36510;52.610;13.468;2022-11-20T06:57:05;23.17;;;15.02;;
50559;SDS011;36510;52.610;13.468;2022-11-20T07:01:56;25.58;;;14.95;;
50559;SDS011;36510;52.610;13.468;2022-11-20T07:06:46;25.60;;;16.00;;
50559;SDS011;36510;52.610;13.468;2022-11-20T07:11:38;24.00;;;16.52;;
50559;SDS011;36510;52.610;13.468;2022-11-20T07:16:28;24.02;;;16.80;;
50559;SDS011;36510;52.610;13.468;2022-11-20T07:21:19;26.55;;;16.92;;
50559;SDS011;36510;52.610;13.468;2022-11-20T07:26:10;26.00;;;17.00;;
50559;SDS011;36510;52.610;13.468;2022-11-20T07:31:00;25.42;;;16.42;;
50559;SDS011;36510;52.610;13.468;2022-11-20T07:35:51;26.58;;;15.73;;
50559;SDS011;36510;52.610;13.468;2022-11-20T07:40:42;26.30;;;16.17;;
50559;SDS011;36510;52.610;13.468;2022-11-20T07:45:32;27.25;;;15.45;;
50559;SDS011;36510;52.610;13.468;2022-11-20T07:50:23;27.27;;;16.15;;
50559;SDS011;36510;52.610;13.468;2022-11-20T07:55:13;26.23;;;16.73;;
50559;SDS011;36510;52.610;13.468;2022-11-20T08:00:04;27.25;;;16.88;;
50559;SDS011;36510;52.610;13.468;2022-11-20T08:04:59;27.40;;;17.50;;
50559;SDS011;36510;52.610;13.468;2022-11-20T08:09:50;28.38;;;17.38;;
50559;SDS011;36510;52.610;13.468;2022-11-20T08:14:40;28.75;;;18.48;;
50559;SDS011;36510;52.610;13.468;2022-11-20T08:19:31;29.80;;;18.83;;
50559;SDS011;36510;52.610;13.468;2022-11-20T08:24:21;24.17;;;13.80;;
50559;SDS011;36510;52.610;13.468;2022-11-20T08:29:12;30.02;;;19.20;;
50559;SDS011;36510;52.610;13.468;2022-11-20T08:34:02;30.48;;;19.08;;
50559;SDS011;36510;52.610;13.468;2022-11-20T08:38:54;25.83;;;16.25;;
50559;SDS011;36510;52.610;13.468;2022-11-20T08:43:45;26.00;;;17.35;;
50559;SDS011;36510;52.610;13.468;2022-11-20T08:48:35;28.38;;;16.65;;
50559;SDS011;36510;52.610;13.468;2022-11-20T08:53:26;29.50;;;18.85;;
50559;SDS011;36510;52.610;13.468;2022-11-20T08:58:17;29.27;;;17.55;;
50559;SDS011;36510;52.610;13.468;2022-11-20T09:03:07;26.88;;;16.83;;
50559;SDS011;36510;52.610;13.468;2022-11-20T09:07:58;32.40;;;20.13;;
50559;SDS011;36510;52.610;13.468;2022-11-20T09:12:49;27.02;;;16.90;;
50559;SDS011;36510;52.610;13.468;2022-11-20T09:17:41;27.65;;;17.02;;
50559;SDS011;36510;52.610;13.468;2022-11-20T09:22:31;29.90;;;17.73;;
50559;SDS011;36510;52.610;13.468;2022-11-20T09:27:22;29.55;;;17.83;;
50559;SDS011;36510;52.610;13.468;2022-11-20T09:32:13;25.42;;;15.23;;
50559;SDS011;36510;52.610;13.468;2022-11-20T09:37:03;26.45;;;18.13;;
50559;SDS011;36510;52.610;13.468;2022-11-20T09:52:32;29.83;;;19.17;;
50559;SDS011;36510;52.610;13.468;2022-11-20T09:57:40;32.42;;;18.05;;
50559;SDS011;36510;52.610;13.468;2022-11-20T10:12:50;27.48;;;17.17;;
50559;SDS011;36510;52.610;13.468;2022-11-20T10:17:57;23.35;;;15.20;;
50559;SDS011;36510;52.610;13.468;2022-11-20T10:23:07;26.17;;;17.13;;
50559;SDS011;36510;52.610;13.468;2022-11-20T10:33:44;28.25;;;18.10;;
50559;SDS011;36510;52.610;13.468;2022-11-20T10:38:43;25.05;;;15.55;;
50559;SDS011;36510;52.610;13.468;2022-11-20T10:43:57;28.63;;;18.73;;
50559;SDS011;36510;52.610;13.468;2022-11-20T10:48:53;24.75;;;14.98;;
50559;SDS011;36510;52.610;13.468;2022-11-20T10:53:58;27.30;;;16.70;;
50559;SDS011;36510;52.610;13.468;2022-11-20T11:04:55;27.25;;;16.73;;
50559;SDS011;36510;52.610;13.468;2022-11-20T11:09:49;24.42;;;14.23;;
50559;SDS011;36510;52.610;13.468;2022-11-20T11:14:44;23.00;;;14.82;;
50559;SDS011;36510;52.610;13.468;2022-11-20T11:19:39;19.38;;;12.32;;
50559;SDS011;36510;52.610;13.468;2022-11-20T11:24:30;20.38;;;13.63;;
50559;SDS011;36510;52.610;13.468;2022-11-20T11:29:20;19.58;;;13.80;;
50559;SDS011;36510;52.610;13.468;2022-11-20T11:34:12;21.20;;;14.02;;
50559;SDS011;36510;52.610;13.468;2022-11-20T11:39:05;21.33;;;14.48;;
50559;SDS011;36510;52.610;13.468;2022-11-20T11:44:13;22.95;;;14.02;;
50559;SDS011;36510;52.610;13.468;2022-11-20T11:49:28;18.48;;;12.38;;
50559;SDS011;36510;52.610;13.468;2022-11-20T11:54:20;19.00;;;13.10;;
50559;SDS011;36510;52.610;13.468;2022-11-20T11:59:26;22.00;;;14.23;;
50559;SDS011;36510;52.610;13.468;2022-11-20T12:09:49;24.73;;;15.68;;
50559;SDS011;36510;52.610;13.468;2022-11-20T12:14:45;25.20;;;15.48;;
50559;SDS011;36510;52.610;13.468;2022-11-20T12:19:46;20.20;;;13.63;;
50559;SDS011;36510;52.610;13.468;2022-11-20T12:24:54;17.88;;;11.40;;
50559;SDS011;36510;52.610;13.468;2022-11-20T12:30:19;23.30;;;13.82;;
50559;SDS011;36510;52.610;13.468;2022-11-20T12:55:48;19.30;;;12.18;;
50559;SDS011;36510;52.610;13.468;2022-11-20T13:01:20;17.85;;;12.13;;
50559;SDS011;36510;52.610;13.468;2022-11-20T13:06:22;16.92;;;10.93;;
50559;SDS011;36510;52.610;13.468;2022-11-20T13:16:12;16.15;;;11.23;;
50559;SDS011;36510;52.610;13.468;2022-11-20T13:21:16;16.05;;;10.88;;
50559;SDS011;36510;52.610;13.468;2022-11-20T13:26:17;15.68;;;11.05;;
50559;SDS011;36510;52.610;13.468;2022-11-20T13:31:24;16.15;;;10.68;;
50559;SDS011;36510;52.610;13.468;2022-11-20T13:36:23;16.73;;;11.35;;
50559;SDS011;36510;52.610;13.468;2022-11-20T13:46:21;15.82;;;11.52;;
50559;SDS011;36510;52.610;13.468;2022-11-20T14:01:40;18.10;;;11.60;;
50559;SDS011;36510;52.610;13.468;2022-11-20T14:06:43;18.02;;;12.80;;
50559;SDS011;36510;52.610;13.468;2022-11-20T14:11:37;18.42;;;12.38;;
50559;SDS011;36510;52.610;13.468;2022-11-20T14:16:36;18.55;;;13.07;;
50559;SDS011;36510;52.610;13.468;2022-11-20T14:21:28;17.30;;;12.07;;
50559;SDS011;36510;52.610;13.468;2022-11-20T14:26:19;17.40;;;11.93;;
50559;SDS011;36510;52.610;13.468;2022-11-20T14:31:15;22.98;;;13.55;;
50559;SDS011;36510;52.610;13.468;2022-11-20T14:36:16;17.33;;;12.07;;
50559;SDS011;36510;52.610;13.468;2022-11-20T14:41:14;18.63;;;11.90;;
50559;SDS011;36510;52.610;13.468;2022-11-20T14:46:08;19.70;;;13.05;;
50559;SDS011;36510;52.610;13.468;2022-11-20T14:51:00;18.73;;;12.93;;
50559;SDS011;36510;52.610;13.468;2022-11-20T14:55:54;19.65;;;13.23;;
50559;SDS011;36510;52.610;13.468;2022-11-20T15:06:14;21.15;;;13.32;;
50559;SDS011;36510;52.610;13.468;2022-11-20T15:11:18;25.95;;;14.65;;
50559;SDS011;36510;52.610;13.468;2022-11-20T15:16:16;20.13;;;13.75;;
50559;SDS011;36510;52.610;13.468;2022-11-20T15:21:13;22.23;;;13.63;;
50559;SDS011;36510;52.610;13.468;2022-11-20T15:26:05;18.65;;;13.15;;
50559;SDS011;36510;52.610;13.468;2022-11-20T15:30:57;20.02;;;13.98;;
50559;SDS011;36510;52.610;13.468;2022-11-20T15:35:48;20.67;;;12.65;;
50559;SDS011;36510;52.610;13.468;2022-11-20T15:40:38;20.08;;;12.60;;
50559;SDS011;36510;52.610;13.468;2022-11-20T15:45:30;18.25;;;11.68;;
50559;SDS011;36510;52.610;13.468;2022-11-20T15:50:35;21.65;;;12.68;;
50559;SDS011;36510;52.610;13.468;2022-11-20T15:55:27;16.85;;;12.20;;
50559;SDS011;36510;52.610;13.468;2022-11-20T16:00:18;15.43;;;11.00;;
50559;SDS011;36510;52.610;13.468;2022-11-20T16:05:10;20.17;;;11.95;;
50559;SDS011;36510;52.610;13.468;2022-11-20T16:10:02;18.75;;;12.38;;
50559;SDS011;36510;52.610;13.468;2022-11-20T16:14:53;17.48;;;12.63;;
50559;SDS011;36510;52.610;13.468;2022-11-20T16:20:02;16.98;;;12.43;;
50559;SDS011;36510;52.610;13.468;2022-11-20T16:24:53;20.98;;;13.98;;
50559;SDS011;36510;52.610;13.468;2022-11-20T16:29:43;17.73;;;11.50;;
50559;SDS011;36510;52.610;13.468;2022-11-20T16:34:34;19.70;;;12.30;;
50559;SDS011;36510;52.610;13.468;2022-11-20T16:39:24;22.92;;;13.20;;
50559;SDS011;36510;52.610;13.468;2022-11-20T16:44:15;21.23;;;14.32;;
50559;SDS011;36510;52.610;13.468;2022-11-20T16:49:06;20.92;;;14.20;;
50559;SDS011;36510;52.610;13.468;2022-11-20T16:54:02;21.67;;;13.73;;
50559;SDS011;36510;52.610;13.468;2022-11-20T16:58:55;20.70;;;14.15;;
50559;SDS011;36510;52.610;13.468;2022-11-20T17:03:54;20.88;;;14.02;;
50559;SDS011;36510;52.610;13.468;2022-11-20T17:08:47;24.77;;;15.98;;
50559;SDS011;36510;52.610;13.468;2022-11-20T17:13:37;28.70;;;17.75;;
50559;SDS011;36510;52.610;13.468;2022-11-20T17:18:28;19.23;;;13.48;;
50559;SDS011;36510;52.610;13.468;2022-11-20T17:23:20;23.80;;;14.57;;
50559;SDS011;36510;52.610;13.468;2022-11-20T17:28:10;22.10;;;14.77;;
50559;SDS011;36510;52.610;13.468;2022-11-20T17:33:01;18.70;;;12.48;;
50559;SDS011;36510;52.610;13.468;2022-11-20T17:37:51;23.08;;;14.98;;
50559;SDS011;36510;52.610;13.468;2022-11-20T17:42:42;21.58;;;14.43;;
50559;SDS011;36510;52.610;13.468;2022-11-20T17:47:34;23.42;;;14.25;;
50559;SDS011;36510;52.610;13.468;2022-11-20T17:52:26;17.63;;;11.77;;
50559;SDS011;36510;52.610;13.468;2022-11-20T17:57:17;22.17;;;14.90;;
50559;SDS011;36510;52.610;13.468;2022-11-20T18:02:26;20.90;;;14.23;;
50559;SDS011;36510;52.610;13.468;2022-11-20T18:07:17;15.82;;;11.68;;
50559;SDS011;36510;52.610;13.468;2022-11-20T18:12:13;19.83;;;12.82;;
50559;SDS011;36510;52.610;13.468;2022-11-20T18:17:06;23.45;;;14.30;;
50559;SDS011;36510;52.610;13.468;2022-11-20T18:21:59;25.95;;;16.95;;
50559;SDS011;36510;52.610;13.468;2022-11-20T18:26:52;17.50;;;11.93;;
50559;SDS011;36510;52.610;13.468;2022-11-20T18:31:43;18.17;;;11.90;;
50559;SDS011;36510;52.610;13.468;2022-11-20T18:36:33;19.45;;;12.02;;
50559;SDS011;36510;52.610;13.468;2022-11-20T18:41:25;18.20;;;12.10;;
50559;SDS011;36510;52.610;13.468;2022-11-20T18:46:36;17.02;;;11.48;;
50559;SDS011;36510;52.610;13.468;2022-11-20T18:51:27;18.48;;;11.68;;
50559;SDS011;36510;52.610;13.468;2022-11-20T18:56:17;17.42;;;10.52;;
50559;SDS011;36510;52.610;13.468;2022-11-20T19:01:08;14.80;;;10.52;;
50559;SDS011;36510;52.610;13.468;2022-11-20T19:05:59;15.05;;;10.70;;
50559;SDS011;36510;52.610;13.468;2022-11-20T19:10:49;15.18;;;9.15;;
50559;SDS011;36510;52.610;13.468;2022-11-20T19:15:41;17.35;;;11.35;;
50559;SDS011;36510;52.610;13.468;2022-11-20T19:20:32;16.50;;;11.98;;
50559;SDS011;36510;52.610;13.468;2022-11-20T19:25:22;17.13;;;10.90;;
50559;SDS011;36510;52.610;13.468;2022-11-20T19:30:13;18.23;;;12.63;;
50559;SDS011;36510;52.610;13.468;2022-11-20T19:35:04;21.80;;;12.93;;
50559;SDS011;36510;52.610;13.468;2022-11-20T19:39:55;18.17;;;12.77;;
50559;SDS011;36510;52.610;13.468;2022-11-20T19:44:48;18.45;;;12.50;;
50559;SDS011;36510;52.610;13.468;2022-11-20T19:49:38;18.73;;;13.45;;
50559;SDS011;36510;52.610;13.468;2022-11-20T19:54:30;17.30;;;12.55;;
50559;SDS011;36510;52.610;13.468;2022-11-20T19:59:21;17.45;;;12.40;;
50559;SDS011;36510;52.610;13.468;2022-11-20T20:04:11;18.63;;;12.98;;
50559;SDS011;36510;52.610;13.468;2022-11-20T20:09:03;18.35;;;13.43;;
50559;SDS011;36510;52.610;13.468;2022-11-20T20:13:55;19.10;;;13.40;;
50559;SDS011;36510;52.610;13.468;2022-11-20T20:18:48;18.30;;;12.60;;
50559;SDS011;36510;52.610;13.468;2022-11-20T20:23:42;17.23;;;12.02;;
50559;SDS011;36510;52.610;13.468;2022-11-20T20:28:34;19.65;;;13.82;;
50559;SDS011;36510;52.610;13.468;2022-11-20T20:33:25;17.38;;;12.02;;
50559;SDS011;36510;52.610;13.468;2022-11-20T20:38:16;18.80;;;12.10;;
50559;SDS011;36510;52.610;13.468;2022-11-20T20:43:06;18.38;;;12.23;;
50559;SDS011;36510;52.610;13.468;2022-11-20T20:47:57;16.75;;;12.70;;
50559;SDS011;36510;52.610;13.468;2022-11-20T20:52:47;19.67;;;12.13;;
50559;SDS011;36510;52.610;13.468;2022-11-20T20:57:38;18.90;;;12.82;;
50559;SDS011;36510;52.610;13.468;2022-11-20T21:02:29;17.98;;;11.45;;
50559;SDS011;36510;52.610;13.468;2022-11-20T21:07:19;20.30;;;11.50;;
50559;SDS011;36510;52.610;13.468;2022-11-20T21:12:10;19.80;;;12.35;;
50559;SDS011;36510;52.610;13.468;2022-11-20T21:17:01;20.55;;;12.23;;
50559;SDS011;36510;52.610;13.468;2022-11-20T21:21:51;17.25;;;12.40;;
50559;SDS011;36510;52.610;13.468;2022-11-20T21:26:48;20.05;;;11.98;;
50559;SDS011;36510;52.610;13.468;2022-11-20T21:31:41;21.00;;;13.18;;
50559;SDS011;36510;52.610;13.468;2022-11-20T21:36:31;20.27;;;12.43;;
50559;SDS011;36510;52.610;13.468;2022-11-20T21:41:22;19.27;;;12.30;;
50559;SDS011;36510;52.610;13.468;2022-11-20T21:46:15;20.88;;;13.32;;
50559;SDS011;36510;52.610;13.468;2022-11-20T21:51:10;21.30;;;13.23;;
50559;SDS011;36510;52.610;13.468;2022-11-20T21:56:02;18.20;;;12.00;;
50559;SDS011;36510;52.610;13.468;2022-11-20T22:00:54;20.95;;;13.80;;
50559;SDS011;36510;52.610;13.468;2022-11-20T22:05:57;18.80;;;12.80;;
50559;SDS011;36510;52.610;13.468;2022-11-20T22:10:58;19.90;;;12.88;;
50559;SDS011;36510;52.610;13.468;2022-11-20T22:15:50;22.50;;;14.02;;
50559;SDS011;36510;52.610;13.468;2022-11-20T22:20:40;21.40;;;14.13;;
50559;SDS011;36510;52.610;13.468;2022-11-20T22:25:31;21.08;;;14.18;;
50559;SDS011;36510;52.610;13.468;2022-11-20T22:30:22;22.35;;;13.38;;
50559;SDS011;36510;52.610;13.468;2022-11-20T22:35:13;20.92;;;13.70;;
50559;SDS011;36510;52.610;13.468;2022-11-20T22:40:03;18.95;;;13.00;;
50559;SDS011;36510;52.610;13.468;2022-11-20T22:44:54;18.73;;;12.27;;
50559;SDS011;36510;52.610;13.468;2022-11-20T22:49:44;23.50;;;14.60;;
50559;SDS011;36510;52.610;13.468;2022-11-20T22:54:35;22.48;;;14.57;;
50559;SDS011;36510;52.610;13.468;2022-11-20T22:59:25;20.50;;;13.93;;
50559;SDS011;36510;52.610;13.468;2022-11-20T23:04:16;19.90;;;14.05;;
50559;SDS011;36510;52.610;13.468;2022-11-20T23:09:07;23.40;;;15.20;;
50559;SDS011;36510;52.610;13.468;2022-11-20T23:13:59;24.20;;;15.65;;
50559;SDS011;36510;52.610;13.468;2022-11-20T23:18:54;23.40;;;15.82;;
50559;SDS011;36510;52.610;13.468;2022-11-20T23:23:46;21.63;;;14.77;;
50559;SDS011;36510;52.610;13.468;2022-11-20T23:28:38;22.17;;;15.40;;
50559;SDS011;36510;52.610;13.468;2022-11-20T23:33:30;24.00;;;16.10;;
50559;SDS011;36510;52.610;13.468;2022-11-20T23:38:23;24.77;;;16.20;;
50559;SDS011;36510;52.610;13.468;2022-11-20T23:43:14;26.38;;;17.83;;
50559;SDS011;36510;52.610;13.468;2022-11-20T23:48:06;24.75;;;15.82;;
50559;SDS011;36510;52.610;13.468;2022-11-20T23:52:57;23.85;;;16.58;;
50559;SDS011;36510;52.610;13.468;2022-11-20T23:57:48;21.40;;;15.57;;
